sensor_id;sensor_type;location;lat;lon;timestamp;pressure;altitude;pressure_sealevel;temperature;humidity
52319;BME280;38258;51.148;14.068;2022-07-06T00:00:08;98840.56;;;13.17;100.00
52319;BME280;38258;51.148;14.068;2022-07-06T00:02:36;98845.38;;;13.31;100.00
52319;BME280;38258;51.148;14.068;2022-07-06T00:05:04;98847.03;;;13.33;100.00
52319;BME280;38258;51.148;14.068;2022-07-06T00:07:31;98852.09;;;13.39;100.00
52319;BME280;38258;51.148;14.068;2022-07-06T00:09:57;98855.88;;;13.31;100.00
52319;BME280;38258;51.148;14.068;2022-07-06T00:12:24;98845.25;;;13.35;100.00
52319;BME280;38258;51.148;14.068;2022-07-06T00:14:50;98848.00;;;13.31;100.00
52319;BME280;38258;51.148;14.068;2022-07-06T00:17:17;98847.91;;;13.34;100.00
52319;BME280;38258;51.148;14.068;2022-07-06T00:19:43;98796.13;;;12.82;100.00
52319;BME280;38258;51.148;14.068;2022-07-06T00:22:11;98833.59;;;13.15;100.00
52319;BME280;38258;51.148;14.068;2022-07-06T00:24:38;98815.81;;;13.24;100.00
52319;BME280;38258;51.148;14.068;2022-07-06T00:27:04;98827.13;;;13.26;100.00
52319;BME280;38258;51.148;14.068;2022-07-06T00:29:31;98808.38;;;13.10;100.00
52319;BME280;38258;51.148;14.068;2022-07-06T00:31:57;98798.78;;;13.09;100.00
52319;BME280;38258;51.148;14.068;2022-07-06T00:34:27;98799.41;;;13.17;100.00
52319;BME280;38258;51.148;14.068;2022-07-06T00:36:54;98791.41;;;13.20;100.00
52319;BME280;38258;51.148;14.068;2022-07-06T00:39:21;98794.75;;;13.25;100.00
52319;BME280;38258;51.148;14.068;2022-07-06T00:41:54;98777.41;;;13.20;100.00
52319;BME280;38258;51.148;14.068;2022-07-06T00:44:20;98761.41;;;13.00;100.00
52319;BME280;38258;51.148;14.068;2022-07-06T00:46:47;98766.25;;;12.86;100.00
52319;BME280;38258;51.148;14.068;2022-07-06T00:49:13;98762.06;;;12.80;100.00
52319;BME280;38258;51.148;14.068;2022-07-06T00:51:54;98765.28;;;12.89;100.00
52319;BME280;38258;51.148;14.068;2022-07-06T00:54:23;98752.41;;;12.81;100.00
52319;BME280;38258;51.148;14.068;2022-07-06T00:56:51;98756.00;;;12.78;100.00
52319;BME280;38258;51.148;14.068;2022-07-06T00:59:18;98762.28;;;12.72;100.00
52319;BME280;38258;51.148;14.068;2022-07-06T01:01:45;98763.63;;;12.86;100.00
52319;BME280;38258;51.148;14.068;2022-07-06T01:04:12;98765.59;;;12.79;100.00
52319;BME280;38258;51.148;14.068;2022-07-06T01:06:39;98750.44;;;12.87;100.00
52319;BME280;38258;51.148;14.068;2022-07-06T01:09:06;98743.34;;;12.91;100.00
52319;BME280;38258;51.148;14.068;2022-07-06T01:11:34;98728.50;;;12.90;100.00
52319;BME280;38258;51.148;14.068;2022-07-06T01:14:01;98720.25;;;12.74;100.00
52319;BME280;38258;51.148;14.068;2022-07-06T01:16:30;98716.63;;;12.78;100.00
52319;BME280;38258;51.148;14.068;2022-07-06T01:18:57;98709.16;;;12.66;100.00
52319;BME280;38258;51.148;14.068;2022-07-06T01:21:25;98709.56;;;12.52;100.00
52319;BME280;38258;51.148;14.068;2022-07-06T01:23:55;98726.03;;;12.57;100.00
52319;BME280;38258;51.148;14.068;2022-07-06T01:26:22;98726.53;;;12.68;100.00
52319;BME280;38258;51.148;14.068;2022-07-06T01:28:51;98720.44;;;12.68;100.00
52319;BME280;38258;51.148;14.068;2022-07-06T01:31:20;98705.59;;;12.67;100.00
52319;BME280;38258;51.148;14.068;2022-07-06T01:33:49;98706.44;;;12.67;100.00
52319;BME280;38258;51.148;14.068;2022-07-06T01:36:16;98708.84;;;12.75;100.00
52319;BME280;38258;51.148;14.068;2022-07-06T01:38:46;98717.69;;;12.72;100.00
52319;BME280;38258;51.148;14.068;2022-07-06T01:41:13;98719.16;;;12.81;100.00
52319;BME280;38258;51.148;14.068;2022-07-06T01:43:40;98720.00;;;12.82;100.00
52319;BME280;38258;51.148;14.068;2022-07-06T01:46:07;98727.53;;;12.93;100.00
52319;BME280;38258;51.148;14.068;2022-07-06T01:48:34;98727.44;;;12.96;100.00
52319;BME280;38258;51.148;14.068;2022-07-06T01:51:01;98721.81;;;12.80;100.00
52319;BME280;38258;51.148;14.068;2022-07-06T01:53:29;98723.41;;;12.57;100.00
52319;BME280;38258;51.148;14.068;2022-07-06T01:55:57;98714.50;;;12.63;100.00
52319;BME280;38258;51.148;14.068;2022-07-06T01:58:25;98717.06;;;12.64;100.00
52319;BME280;38258;51.148;14.068;2022-07-06T02:00:52;98712.56;;;12.68;100.00
52319;BME280;38258;51.148;14.068;2022-07-06T02:03:19;98713.53;;;12.65;100.00
52319;BME280;38258;51.148;14.068;2022-07-06T02:05:46;98707.75;;;12.54;100.00
52319;BME280;38258;51.148;14.068;2022-07-06T02:08:13;98705.31;;;12.48;100.00
52319;BME280;38258;51.148;14.068;2022-07-06T02:10:40;98711.34;;;12.51;100.00
52319;BME280;38258;51.148;14.068;2022-07-06T02:13:08;98707.94;;;12.48;100.00
52319;BME280;38258;51.148;14.068;2022-07-06T02:15:35;98708.28;;;12.37;100.00
52319;BME280;38258;51.148;14.068;2022-07-06T02:18:02;98715.03;;;12.44;100.00
52319;BME280;38258;51.148;14.068;2022-07-06T02:20:29;98711.72;;;12.39;100.00
52319;BME280;38258;51.148;14.068;2022-07-06T02:22:56;98713.66;;;12.32;100.00
52319;BME280;38258;51.148;14.068;2022-07-06T02:25:23;98712.78;;;12.32;100.00
52319;BME280;38258;51.148;14.068;2022-07-06T02:27:50;98705.34;;;12.18;100.00
52319;BME280;38258;51.148;14.068;2022-07-06T02:30:19;98706.28;;;12.15;100.00
52319;BME280;38258;51.148;14.068;2022-07-06T02:32:46;98705.69;;;12.07;100.00
52319;BME280;38258;51.148;14.068;2022-07-06T02:35:13;98702.19;;;12.06;100.00
52319;BME280;38258;51.148;14.068;2022-07-06T02:37:42;98705.72;;;12.05;100.00
52319;BME280;38258;51.148;14.068;2022-07-06T02:40:10;98700.50;;;12.04;100.00
52319;BME280;38258;51.148;14.068;2022-07-06T02:42:37;98690.31;;;11.93;100.00
52319;BME280;38258;51.148;14.068;2022-07-06T02:45:06;98696.72;;;11.82;100.00
52319;BME280;38258;51.148;14.068;2022-07-06T02:47:34;98704.66;;;11.79;100.00
52319;BME280;38258;51.148;14.068;2022-07-06T02:50:02;98700.56;;;11.69;100.00
52319;BME280;38258;51.148;14.068;2022-07-06T02:52:29;98702.69;;;11.56;100.00
52319;BME280;38258;51.148;14.068;2022-07-06T02:54:58;98705.81;;;11.37;100.00
52319;BME280;38258;51.148;14.068;2022-07-06T02:57:25;98713.75;;;11.34;100.00
52319;BME280;38258;51.148;14.068;2022-07-06T02:59:52;98709.38;;;11.33;100.00
52319;BME280;38258;51.148;14.068;2022-07-06T03:02:19;98716.50;;;11.29;100.00
52319;BME280;38258;51.148;14.068;2022-07-06T03:04:48;98714.38;;;11.09;100.00
52319;BME280;38258;51.148;14.068;2022-07-06T03:07:15;98712.09;;;11.30;100.00
52319;BME280;38258;51.148;14.068;2022-07-06T03:09:43;98715.69;;;11.27;100.00
52319;BME280;38258;51.148;14.068;2022-07-06T03:12:10;98717.53;;;11.22;100.00
52319;BME280;38258;51.148;14.068;2022-07-06T03:14:38;98721.34;;;11.09;100.00
52319;BME280;38258;51.148;14.068;2022-07-06T03:17:05;98705.81;;;11.02;100.00
52319;BME280;38258;51.148;14.068;2022-07-06T03:19:31;98713.16;;;11.23;100.00
52319;BME280;38258;51.148;14.068;2022-07-06T03:22:00;98717.91;;;11.08;100.00
52319;BME280;38258;51.148;14.068;2022-07-06T03:24:27;98724.16;;;11.01;100.00
52319;BME280;38258;51.148;14.068;2022-07-06T03:26:54;98715.97;;;10.79;100.00
52319;BME280;38258;51.148;14.068;2022-07-06T03:29:20;98717.97;;;10.69;100.00
52319;BME280;38258;51.148;14.068;2022-07-06T03:31:48;98719.84;;;10.64;100.00
52319;BME280;38258;51.148;14.068;2022-07-06T03:34:15;98715.69;;;10.55;100.00
52319;BME280;38258;51.148;14.068;2022-07-06T03:36:42;98723.16;;;10.31;100.00
52319;BME280;38258;51.148;14.068;2022-07-06T03:39:10;98726.59;;;10.31;100.00
52319;BME280;38258;51.148;14.068;2022-07-06T03:41:38;98726.03;;;10.17;100.00
52319;BME280;38258;51.148;14.068;2022-07-06T03:44:06;98722.53;;;10.18;100.00
52319;BME280;38258;51.148;14.068;2022-07-06T03:46:34;98726.75;;;10.25;100.00
52319;BME280;38258;51.148;14.068;2022-07-06T03:49:01;98731.16;;;10.23;100.00
52319;BME280;38258;51.148;14.068;2022-07-06T03:51:28;98724.06;;;10.28;100.00
52319;BME280;38258;51.148;14.068;2022-07-06T03:53:55;98717.84;;;10.34;100.00
52319;BME280;38258;51.148;14.068;2022-07-06T03:56:23;98726.41;;;10.42;100.00
52319;BME280;38258;51.148;14.068;2022-07-06T03:59:03;98727.63;;;10.65;100.00
52319;BME280;38258;51.148;14.068;2022-07-06T04:01:33;98721.94;;;10.85;100.00
52319;BME280;38258;51.148;14.068;2022-07-06T04:04:00;98720.22;;;10.84;100.00
52319;BME280;38258;51.148;14.068;2022-07-06T04:06:29;98727.84;;;10.94;100.00
52319;BME280;38258;51.148;14.068;2022-07-06T04:08:56;98731.78;;;11.12;100.00
52319;BME280;38258;51.148;14.068;2022-07-06T04:11:24;98730.53;;;11.25;100.00
52319;BME280;38258;51.148;14.068;2022-07-06T04:14:04;98720.75;;;11.34;100.00
52319;BME280;38258;51.148;14.068;2022-07-06T04:16:51;98723.03;;;11.46;100.00
52319;BME280;38258;51.148;14.068;2022-07-06T04:19:18;98719.09;;;11.63;100.00
52319;BME280;38258;51.148;14.068;2022-07-06T04:21:45;98723.09;;;11.76;100.00
52319;BME280;38258;51.148;14.068;2022-07-06T04:24:13;98714.34;;;12.09;100.00
52319;BME280;38258;51.148;14.068;2022-07-06T04:26:41;98725.53;;;12.44;100.00
52319;BME280;38258;51.148;14.068;2022-07-06T04:29:09;98722.53;;;12.56;100.00
52319;BME280;38258;51.148;14.068;2022-07-06T04:31:36;98732.63;;;12.70;100.00
52319;BME280;38258;51.148;14.068;2022-07-06T04:34:03;98725.25;;;12.82;100.00
52319;BME280;38258;51.148;14.068;2022-07-06T04:36:31;98724.00;;;12.94;100.00
52319;BME280;38258;51.148;14.068;2022-07-06T04:38:58;98730.22;;;12.91;100.00
52319;BME280;38258;51.148;14.068;2022-07-06T04:41:25;98722.28;;;12.93;100.00
52319;BME280;38258;51.148;14.068;2022-07-06T04:43:54;98734.38;;;12.98;100.00
52319;BME280;38258;51.148;14.068;2022-07-06T04:46:22;98724.34;;;13.10;100.00
52319;BME280;38258;51.148;14.068;2022-07-06T04:48:51;98739.50;;;13.28;100.00
52319;BME280;38258;51.148;14.068;2022-07-06T04:51:23;98739.69;;;13.49;100.00
52319;BME280;38258;51.148;14.068;2022-07-06T04:53:50;98738.25;;;13.39;100.00
52319;BME280;38258;51.148;14.068;2022-07-06T04:56:18;98746.03;;;13.43;100.00
52319;BME280;38258;51.148;14.068;2022-07-06T04:58:45;98740.59;;;13.48;100.00
52319;BME280;38258;51.148;14.068;2022-07-06T05:01:16;98742.75;;;13.62;100.00
52319;BME280;38258;51.148;14.068;2022-07-06T05:03:43;98732.94;;;13.67;100.00
52319;BME280;38258;51.148;14.068;2022-07-06T05:06:12;98746.28;;;13.87;100.00
52319;BME280;38258;51.148;14.068;2022-07-06T05:08:39;98747.78;;;13.68;100.00
52319;BME280;38258;51.148;14.068;2022-07-06T05:11:06;98754.81;;;13.68;100.00
52319;BME280;38258;51.148;14.068;2022-07-06T05:13:33;98757.44;;;13.68;100.00
52319;BME280;38258;51.148;14.068;2022-07-06T05:16:00;98761.97;;;13.64;100.00
52319;BME280;38258;51.148;14.068;2022-07-06T05:18:29;98763.69;;;13.65;100.00
52319;BME280;38258;51.148;14.068;2022-07-06T05:20:57;98751.22;;;13.70;100.00
52319;BME280;38258;51.148;14.068;2022-07-06T05:23:27;98741.53;;;13.96;100.00
52319;BME280;38258;51.148;14.068;2022-07-06T05:25:55;98760.66;;;14.49;100.00
52319;BME280;38258;51.148;14.068;2022-07-06T05:28:22;98757.56;;;14.38;100.00
52319;BME280;38258;51.148;14.068;2022-07-06T05:30:49;98761.97;;;14.60;100.00
52319;BME280;38258;51.148;14.068;2022-07-06T05:33:17;98777.47;;;14.21;100.00
52319;BME280;38258;51.148;14.068;2022-07-06T05:35:46;98772.78;;;14.30;100.00
52319;BME280;38258;51.148;14.068;2022-07-06T05:38:13;98780.16;;;14.20;100.00
52319;BME280;38258;51.148;14.068;2022-07-06T05:40:39;98788.00;;;13.96;100.00
52319;BME280;38258;51.148;14.068;2022-07-06T05:43:06;98795.91;;;14.21;100.00
52319;BME280;38258;51.148;14.068;2022-07-06T05:45:34;98791.06;;;14.09;100.00
52319;BME280;38258;51.148;14.068;2022-07-06T05:48:02;98802.91;;;14.21;100.00
52319;BME280;38258;51.148;14.068;2022-07-06T05:50:47;98796.06;;;14.17;100.00
52319;BME280;38258;51.148;14.068;2022-07-06T05:53:14;98791.66;;;14.41;100.00
52319;BME280;38258;51.148;14.068;2022-07-06T05:55:41;98797.75;;;14.65;100.00
52319;BME280;38258;51.148;14.068;2022-07-06T05:58:08;98794.66;;;14.54;100.00
52319;BME280;38258;51.148;14.068;2022-07-06T06:00:36;98804.53;;;14.73;100.00
52319;BME280;38258;51.148;14.068;2022-07-06T06:03:10;98796.25;;;14.82;100.00
52319;BME280;38258;51.148;14.068;2022-07-06T06:05:36;98799.34;;;14.93;100.00
52319;BME280;38258;51.148;14.068;2022-07-06T06:08:07;98795.56;;;14.53;100.00
52319;BME280;38258;51.148;14.068;2022-07-06T06:10:34;98805.78;;;14.38;100.00
52319;BME280;38258;51.148;14.068;2022-07-06T06:13:05;98814.91;;;14.04;100.00
52319;BME280;38258;51.148;14.068;2022-07-06T06:15:33;98810.34;;;13.84;100.00
52319;BME280;38258;51.148;14.068;2022-07-06T06:18:00;98812.31;;;14.03;100.00
52319;BME280;38258;51.148;14.068;2022-07-06T06:20:29;98810.91;;;14.18;100.00
52319;BME280;38258;51.148;14.068;2022-07-06T06:22:57;98793.69;;;14.33;100.00
52319;BME280;38258;51.148;14.068;2022-07-06T06:25:30;98813.50;;;14.43;100.00
52319;BME280;38258;51.148;14.068;2022-07-06T06:27:57;98812.69;;;14.65;100.00
52319;BME280;38258;51.148;14.068;2022-07-06T06:30:24;98815.84;;;14.51;100.00
52319;BME280;38258;51.148;14.068;2022-07-06T06:32:51;98818.97;;;14.61;100.00
52319;BME280;38258;51.148;14.068;2022-07-06T06:35:17;98817.84;;;14.68;100.00
52319;BME280;38258;51.148;14.068;2022-07-06T06:37:44;98820.34;;;14.73;100.00
52319;BME280;38258;51.148;14.068;2022-07-06T06:40:11;98824.69;;;14.74;100.00
52319;BME280;38258;51.148;14.068;2022-07-06T06:42:39;98819.34;;;14.75;100.00
52319;BME280;38258;51.148;14.068;2022-07-06T06:45:10;98816.94;;;14.93;100.00
52319;BME280;38258;51.148;14.068;2022-07-06T06:47:37;98822.50;;;14.85;100.00
52319;BME280;38258;51.148;14.068;2022-07-06T06:50:05;98828.50;;;15.11;100.00
52319;BME280;38258;51.148;14.068;2022-07-06T06:52:32;98831.84;;;14.92;100.00
52319;BME280;38258;51.148;14.068;2022-07-06T06:54:58;98834.16;;;14.78;100.00
52319;BME280;38258;51.148;14.068;2022-07-06T06:57:25;98834.19;;;15.00;100.00
52319;BME280;38258;51.148;14.068;2022-07-06T06:59:55;98831.13;;;15.11;100.00
52319;BME280;38258;51.148;14.068;2022-07-06T07:02:22;98833.88;;;15.30;100.00
52319;BME280;38258;51.148;14.068;2022-07-06T07:04:49;98840.31;;;15.45;100.00
52319;BME280;38258;51.148;14.068;2022-07-06T07:07:16;98829.88;;;15.42;100.00
52319;BME280;38258;51.148;14.068;2022-07-06T07:09:43;98843.31;;;15.79;100.00
52319;BME280;38258;51.148;14.068;2022-07-06T07:12:10;98849.03;;;15.68;100.00
52319;BME280;38258;51.148;14.068;2022-07-06T07:14:37;98851.00;;;15.63;100.00
52319;BME280;38258;51.148;14.068;2022-07-06T07:17:05;98852.88;;;15.81;100.00
52319;BME280;38258;51.148;14.068;2022-07-06T07:19:32;98855.41;;;15.62;100.00
52319;BME280;38258;51.148;14.068;2022-07-06T07:21:59;98855.25;;;15.88;100.00
52319;BME280;38258;51.148;14.068;2022-07-06T07:24:25;98854.53;;;15.84;100.00
52319;BME280;38258;51.148;14.068;2022-07-06T07:26:52;98859.19;;;15.77;100.00
52319;BME280;38258;51.148;14.068;2022-07-06T07:29:19;98852.78;;;15.62;100.00
52319;BME280;38258;51.148;14.068;2022-07-06T07:31:46;98860.59;;;15.86;100.00
52319;BME280;38258;51.148;14.068;2022-07-06T07:34:14;98866.22;;;15.99;100.00
52319;BME280;38258;51.148;14.068;2022-07-06T07:36:41;98861.13;;;16.15;100.00
52319;BME280;38258;51.148;14.068;2022-07-06T07:39:08;98864.91;;;16.30;100.00
52319;BME280;38258;51.148;14.068;2022-07-06T07:41:35;98860.34;;;16.53;100.00
52319;BME280;38258;51.148;14.068;2022-07-06T07:44:02;98866.16;;;16.21;100.00
52319;BME280;38258;51.148;14.068;2022-07-06T07:46:29;98865.34;;;16.78;100.00
52319;BME280;38258;51.148;14.068;2022-07-06T07:48:55;98858.47;;;16.95;97.70
52319;BME280;38258;51.148;14.068;2022-07-06T07:51:24;98860.16;;;16.96;94.03
52319;BME280;38258;51.148;14.068;2022-07-06T07:53:51;98867.13;;;16.59;98.44
52319;BME280;38258;51.148;14.068;2022-07-06T07:56:18;98866.34;;;17.33;89.99
52319;BME280;38258;51.148;14.068;2022-07-06T07:58:44;98849.69;;;17.14;88.21
52319;BME280;38258;51.148;14.068;2022-07-06T08:01:16;98859.16;;;17.18;87.97
52319;BME280;38258;51.148;14.068;2022-07-06T08:03:43;98854.25;;;17.10;88.06
52319;BME280;38258;51.148;14.068;2022-07-06T08:06:10;98863.28;;;16.85;90.01
52319;BME280;38258;51.148;14.068;2022-07-06T08:08:38;98857.09;;;17.05;87.42
52319;BME280;38258;51.148;14.068;2022-07-06T08:11:05;98866.34;;;17.33;87.71
52319;BME280;38258;51.148;14.068;2022-07-06T08:13:32;98846.31;;;17.47;87.10
52319;BME280;38258;51.148;14.068;2022-07-06T08:15:59;98860.72;;;17.94;77.96
52319;BME280;38258;51.148;14.068;2022-07-06T08:18:27;98863.06;;;17.83;76.19
52319;BME280;38258;51.148;14.068;2022-07-06T08:20:53;98860.03;;;17.18;75.18
52319;BME280;38258;51.148;14.068;2022-07-06T08:23:22;98869.31;;;17.27;78.51
52319;BME280;38258;51.148;14.068;2022-07-06T08:25:50;98863.97;;;17.29;75.79
52319;BME280;38258;51.148;14.068;2022-07-06T08:28:17;98875.81;;;16.81;72.58
52319;BME280;38258;51.148;14.068;2022-07-06T08:30:44;98878.50;;;16.61;76.10
52319;BME280;38258;51.148;14.068;2022-07-06T08:33:10;98872.75;;;16.72;77.90
52319;BME280;38258;51.148;14.068;2022-07-06T08:35:37;98867.66;;;17.05;76.09
52319;BME280;38258;51.148;14.068;2022-07-06T08:38:04;98874.81;;;17.22;76.97
52319;BME280;38258;51.148;14.068;2022-07-06T08:40:33;98879.09;;;17.79;70.40
52319;BME280;38258;51.148;14.068;2022-07-06T08:43:02;98864.28;;;18.62;71.31
52319;BME280;38258;51.148;14.068;2022-07-06T08:45:29;98862.75;;;17.89;66.42
52319;BME280;38258;51.148;14.068;2022-07-06T08:47:58;98869.38;;;17.98;65.67
52319;BME280;38258;51.148;14.068;2022-07-06T08:50:29;98879.16;;;17.78;71.49
52319;BME280;38258;51.148;14.068;2022-07-06T08:52:57;98874.94;;;17.38;71.53
52319;BME280;38258;51.148;14.068;2022-07-06T08:55:25;98879.47;;;17.54;71.09
52319;BME280;38258;51.148;14.068;2022-07-06T08:57:52;98872.97;;;17.79;70.25
52319;BME280;38258;51.148;14.068;2022-07-06T09:00:21;98875.97;;;17.71;66.99
52319;BME280;38258;51.148;14.068;2022-07-06T09:02:49;98872.88;;;17.80;64.21
52319;BME280;38258;51.148;14.068;2022-07-06T09:05:17;98877.38;;;17.78;62.80
52319;BME280;38258;51.148;14.068;2022-07-06T09:07:45;98872.63;;;17.85;61.21
52319;BME280;38258;51.148;14.068;2022-07-06T09:10:17;98876.84;;;17.72;63.00
52319;BME280;38258;51.148;14.068;2022-07-06T09:12:44;98873.53;;;17.49;63.49
52319;BME280;38258;51.148;14.068;2022-07-06T09:15:11;98881.63;;;18.18;60.83
52319;BME280;38258;51.148;14.068;2022-07-06T09:17:39;98875.84;;;18.09;62.25
52319;BME280;38258;51.148;14.068;2022-07-06T09:20:07;98859.13;;;18.43;61.80
52319;BME280;38258;51.148;14.068;2022-07-06T09:22:35;98872.28;;;18.78;60.95
52319;BME280;38258;51.148;14.068;2022-07-06T09:25:04;98868.53;;;19.14;57.72
52319;BME280;38258;51.148;14.068;2022-07-06T09:27:31;98860.44;;;18.68;59.15
52319;BME280;38258;51.148;14.068;2022-07-06T09:30:00;98864.03;;;18.17;58.49
52319;BME280;38258;51.148;14.068;2022-07-06T09:32:28;98877.47;;;18.30;60.52
52319;BME280;38258;51.148;14.068;2022-07-06T09:34:56;98866.56;;;18.18;59.89
52319;BME280;38258;51.148;14.068;2022-07-06T09:37:22;98873.59;;;18.53;59.13
52319;BME280;38258;51.148;14.068;2022-07-06T09:39:50;98837.41;;;19.18;57.28
52319;BME280;38258;51.148;14.068;2022-07-06T09:42:23;98885.78;;;20.00;54.11
52319;BME280;38258;51.148;14.068;2022-07-06T09:44:50;98873.06;;;19.44;54.43
52319;BME280;38258;51.148;14.068;2022-07-06T09:47:18;98876.56;;;19.29;55.91
52319;BME280;38258;51.148;14.068;2022-07-06T09:49:45;98875.72;;;19.44;55.61
52319;BME280;38258;51.148;14.068;2022-07-06T09:52:14;98886.94;;;19.80;53.37
52319;BME280;38258;51.148;14.068;2022-07-06T09:54:41;98880.47;;;19.54;52.41
52319;BME280;38258;51.148;14.068;2022-07-06T09:57:08;98890.97;;;19.71;52.50
52319;BME280;38258;51.148;14.068;2022-07-06T09:59:35;98882.81;;;20.50;51.47
52319;BME280;38258;51.148;14.068;2022-07-06T10:02:03;98879.72;;;19.52;52.94
52319;BME280;38258;51.148;14.068;2022-07-06T10:04:31;98885.69;;;18.91;54.28
52319;BME280;38258;51.148;14.068;2022-07-06T10:06:59;98887.81;;;18.68;58.46
52319;BME280;38258;51.148;14.068;2022-07-06T10:09:28;98879.78;;;18.36;57.14
52319;BME280;38258;51.148;14.068;2022-07-06T10:11:59;98863.25;;;18.15;57.15
52319;BME280;38258;51.148;14.068;2022-07-06T10:14:27;98886.81;;;18.87;56.54
52319;BME280;38258;51.148;14.068;2022-07-06T10:16:56;98890.19;;;19.06;58.19
52319;BME280;38258;51.148;14.068;2022-07-06T10:19:24;98859.66;;;18.16;57.57
52319;BME280;38258;51.148;14.068;2022-07-06T10:21:51;98881.91;;;17.94;61.74
52319;BME280;38258;51.148;14.068;2022-07-06T10:24:19;98883.47;;;18.33;60.18
52319;BME280;38258;51.148;14.068;2022-07-06T10:26:48;98879.00;;;18.51;60.34
52319;BME280;38258;51.148;14.068;2022-07-06T10:29:15;98879.59;;;18.57;58.15
52319;BME280;38258;51.148;14.068;2022-07-06T10:31:44;98886.09;;;18.33;57.58
52319;BME280;38258;51.148;14.068;2022-07-06T10:34:14;98880.50;;;18.89;57.66
52319;BME280;38258;51.148;14.068;2022-07-06T10:36:43;98877.69;;;19.25;55.28
52319;BME280;38258;51.148;14.068;2022-07-06T10:39:11;98870.47;;;20.78;49.68
52319;BME280;38258;51.148;14.068;2022-07-06T10:41:57;98875.22;;;20.44;48.85
52319;BME280;38258;51.148;14.068;2022-07-06T10:44:26;98853.66;;;20.92;48.30
52319;BME280;38258;51.148;14.068;2022-07-06T10:46:54;98877.44;;;19.92;49.74
52319;BME280;38258;51.148;14.068;2022-07-06T10:49:22;98837.44;;;19.02;51.21
52319;BME280;38258;51.148;14.068;2022-07-06T10:51:49;98859.03;;;18.78;52.58
52319;BME280;38258;51.148;14.068;2022-07-06T10:54:18;98870.16;;;18.51;53.80
52319;BME280;38258;51.148;14.068;2022-07-06T10:56:46;98863.53;;;18.60;53.74
52319;BME280;38258;51.148;14.068;2022-07-06T10:59:16;98864.34;;;18.44;56.14
52319;BME280;38258;51.148;14.068;2022-07-06T11:02:13;98872.00;;;18.99;54.90
52319;BME280;38258;51.148;14.068;2022-07-06T11:04:41;98865.75;;;18.51;53.16
52319;BME280;38258;51.148;14.068;2022-07-06T11:07:10;98860.47;;;18.84;53.24
52319;BME280;38258;51.148;14.068;2022-07-06T11:09:37;98856.44;;;20.32;49.74
52319;BME280;38258;51.148;14.068;2022-07-06T11:12:14;98860.31;;;20.70;49.55
52319;BME280;38258;51.148;14.068;2022-07-06T11:14:44;98860.31;;;20.70;46.72
52319;BME280;38258;51.148;14.068;2022-07-06T11:17:12;98869.44;;;20.52;50.06
52319;BME280;38258;51.148;14.068;2022-07-06T11:19:49;98852.03;;;21.31;46.34
52319;BME280;38258;51.148;14.068;2022-07-06T11:22:17;98855.44;;;21.33;43.99
52319;BME280;38258;51.148;14.068;2022-07-06T11:24:45;98854.78;;;21.30;45.87
52319;BME280;38258;51.148;14.068;2022-07-06T11:27:13;98846.47;;;20.51;47.46
52319;BME280;38258;51.148;14.068;2022-07-06T11:29:40;98860.22;;;20.86;46.41
52319;BME280;38258;51.148;14.068;2022-07-06T11:32:09;98857.75;;;20.54;48.56
52319;BME280;38258;51.148;14.068;2022-07-06T11:34:38;98842.56;;;19.52;47.58
52319;BME280;38258;51.148;14.068;2022-07-06T11:37:06;98853.22;;;18.87;50.77
52319;BME280;38258;51.148;14.068;2022-07-06T11:39:35;98826.09;;;18.50;52.75
52319;BME280;38258;51.148;14.068;2022-07-06T11:42:04;98845.28;;;19.19;50.06
52319;BME280;38258;51.148;14.068;2022-07-06T11:44:31;98849.75;;;19.03;49.11
52319;BME280;38258;51.148;14.068;2022-07-06T11:46:58;98838.78;;;19.25;49.45
52319;BME280;38258;51.148;14.068;2022-07-06T11:49:28;98857.34;;;19.09;50.89
52319;BME280;38258;51.148;14.068;2022-07-06T11:51:56;98855.41;;;18.63;50.40
52319;BME280;38258;51.148;14.068;2022-07-06T11:54:24;98852.72;;;18.81;49.60
52319;BME280;38258;51.148;14.068;2022-07-06T11:56:52;98858.25;;;18.76;50.31
52319;BME280;38258;51.148;14.068;2022-07-06T11:59:21;98847.31;;;18.82;50.25
52319;BME280;38258;51.148;14.068;2022-07-06T12:01:48;98843.75;;;18.99;49.39
52319;BME280;38258;51.148;14.068;2022-07-06T12:04:15;98842.38;;;19.08;50.09
52319;BME280;38258;51.148;14.068;2022-07-06T12:06:44;98845.22;;;20.13;48.06
52319;BME280;38258;51.148;14.068;2022-07-06T12:09:12;98814.00;;;21.84;43.86
52319;BME280;38258;51.148;14.068;2022-07-06T12:11:40;98834.13;;;21.88;43.17
52319;BME280;38258;51.148;14.068;2022-07-06T12:14:13;98833.69;;;21.95;42.52
52319;BME280;38258;51.148;14.068;2022-07-06T12:16:40;98830.00;;;21.02;43.25
52319;BME280;38258;51.148;14.068;2022-07-06T12:19:07;98827.38;;;21.70;41.13
52319;BME280;38258;51.148;14.068;2022-07-06T12:21:42;98838.91;;;22.61;40.08
52319;BME280;38258;51.148;14.068;2022-07-06T12:24:17;98833.22;;;21.35;40.41
52319;BME280;38258;51.148;14.068;2022-07-06T12:26:44;98835.66;;;20.39;43.50
52319;BME280;38258;51.148;14.068;2022-07-06T12:29:12;98829.84;;;19.73;45.77
52319;BME280;38258;51.148;14.068;2022-07-06T12:31:40;98841.25;;;19.28;47.53
52319;BME280;38258;51.148;14.068;2022-07-06T12:34:13;98843.84;;;19.14;45.35
52319;BME280;38258;51.148;14.068;2022-07-06T12:36:45;98844.16;;;19.40;47.00
52319;BME280;38258;51.148;14.068;2022-07-06T12:39:14;98838.50;;;20.51;46.85
52319;BME280;38258;51.148;14.068;2022-07-06T12:41:46;98833.22;;;21.35;43.68
52319;BME280;38258;51.148;14.068;2022-07-06T12:44:14;98828.22;;;21.70;41.10
52319;BME280;38258;51.148;14.068;2022-07-06T12:46:42;98825.03;;;20.68;44.47